createdAt,value
2018-10-07T00:00:05.290Z,13.18
2018-10-07T00:02:32.802Z,12.23
2018-10-07T00:05:00.362Z,15.40
2018-10-07T00:07:27.870Z,13.13
2018-10-07T00:09:55.466Z,11.18
2018-10-07T00:12:22.982Z,12.63
2018-10-07T00:14:50.507Z,11.50
2018-10-07T00:17:18.102Z,11.70
2018-10-07T00:19:45.602Z,12.65
2018-10-07T00:22:13.178Z,11.63
2018-10-07T00:24:40.702Z,11.88
2018-10-07T00:27:08.283Z,12.65
2018-10-07T00:29:35.774Z,11.73
2018-10-07T00:32:09.090Z,11.08
2018-10-07T00:34:36.582Z,10.55
2018-10-07T00:37:04.211Z,10.23
2018-10-07T00:39:31.740Z,13.83
2018-10-07T00:41:59.363Z,13.65
2018-10-07T00:44:26.888Z,10.30
2018-10-07T00:46:54.374Z,11.38
2018-10-07T00:49:21.942Z,11.00
2018-10-07T00:51:49.455Z,10.13
2018-10-07T00:54:17.010Z,11.78
2018-10-07T00:56:44.506Z,12.80
2018-10-07T00:59:12.118Z,10.82
2018-10-07T01:01:39.611Z,12.23
2018-10-07T01:04:07.166Z,10.95
2018-10-07T01:06:34.694Z,11.83
2018-10-07T01:09:02.918Z,11.18
2018-10-07T01:11:30.475Z,13.55
2018-10-07T01:13:57.990Z,13.00
2018-10-07T01:16:25.584Z,12.03
2018-10-07T01:18:53.181Z,12.10
2018-10-07T01:21:20.817Z,12.18
2018-10-07T01:23:48.329Z,11.00
2018-10-07T01:26:15.919Z,11.05
2018-10-07T01:28:43.395Z,12.07
2018-10-07T01:31:10.961Z,10.38
2018-10-07T01:33:38.436Z,11.18
2018-10-07T01:36:06.096Z,11.25
2018-10-07T01:38:33.680Z,10.75
2018-10-07T01:41:01.400Z,11.25
2018-10-07T01:43:29.125Z,11.03
2018-10-07T01:45:56.618Z,13.62
2018-10-07T01:48:24.107Z,10.60
2018-10-07T01:50:51.682Z,11.20
2018-10-07T01:53:19.235Z,10.43
2018-10-07T01:55:46.804Z,10.72
2018-10-07T01:58:14.375Z,11.00
2018-10-07T02:00:41.931Z,10.45
2018-10-07T02:03:09.482Z,10.38
2018-10-07T02:05:37.559Z,9.73
2018-10-07T02:08:05.301Z,10.78
2018-10-07T02:10:32.889Z,11.00
2018-10-07T02:13:00.382Z,9.95
2018-10-07T02:15:28.073Z,14.18
2018-10-07T02:17:55.565Z,10.78
2018-10-07T02:20:23.113Z,11.08
2018-10-07T02:22:50.646Z,10.82
2018-10-07T02:25:18.205Z,10.98
2018-10-07T02:27:45.739Z,10.93
2018-10-07T02:30:13.297Z,10.18
2018-10-07T02:32:40.807Z,9.88
2018-10-07T02:35:08.365Z,10.30
2018-10-07T02:37:35.933Z,10.10
2018-10-07T02:40:03.607Z,9.80
2018-10-07T02:42:31.263Z,9.88
2018-10-07T02:44:58.762Z,10.32
2018-10-07T02:47:26.386Z,10.40
2018-10-07T02:49:53.959Z,11.12
2018-10-07T02:52:27.245Z,10.13
2018-10-07T02:54:55.198Z,11.50
2018-10-07T02:57:23.055Z,10.93
2018-10-07T02:59:51.085Z,11.43
2018-10-07T03:03:03.399Z,11.00
2018-10-07T03:05:54.905Z,9.90
2018-10-07T03:08:22.486Z,11.08
2018-10-07T03:10:50.015Z,10.25
2018-10-07T03:13:17.591Z,11.95
2018-10-07T03:15:45.094Z,10.63
2018-10-07T03:18:12.575Z,11.15
2018-10-07T03:20:40.149Z,11.00
2018-10-07T03:23:07.750Z,11.15
2018-10-07T03:25:35.330Z,10.65
2018-10-07T03:28:02.805Z,10.63
2018-10-07T03:30:30.378Z,11.57
2018-10-07T03:32:57.920Z,10.80
2018-10-07T03:35:25.511Z,11.60
2018-10-07T03:37:53.281Z,10.68
2018-10-07T03:40:20.858Z,11.85
2018-10-07T03:42:48.394Z,10.30
2018-10-07T03:45:15.944Z,11.08
2018-10-07T03:47:43.462Z,11.22
2018-10-07T03:50:11.026Z,10.75
2018-10-07T03:52:38.499Z,11.45
2018-10-07T03:55:06.126Z,11.97
2018-10-07T03:57:33.670Z,10.72
2018-10-07T04:00:01.416Z,11.18
2018-10-07T04:02:28.938Z,10.63
2018-10-07T04:04:56.475Z,10.95
2018-10-07T04:07:24.053Z,11.70
2018-10-07T04:09:51.549Z,10.25
2018-10-07T04:12:19.094Z,10.25
2018-10-07T04:14:46.578Z,12.15
2018-10-07T04:17:14.118Z,9.83
2018-10-07T04:19:41.597Z,10.45
2018-10-07T04:22:09.302Z,10.80
2018-10-07T04:24:36.869Z,10.68
2018-10-07T04:27:04.346Z,15.00
2018-10-07T04:29:31.918Z,10.23
2018-10-07T04:31:59.493Z,17.48
2018-10-07T04:34:27.054Z,10.28
2018-10-07T04:36:54.561Z,9.23
2018-10-07T04:39:22.609Z,10.88
2018-10-07T04:41:50.109Z,10.85
2018-10-07T04:44:17.776Z,11.60
2018-10-07T04:46:45.265Z,11.22
2018-10-07T04:49:12.842Z,10.85
2018-10-07T04:51:40.326Z,11.35
2018-10-07T04:54:07.855Z,12.07
2018-10-07T04:56:35.494Z,9.70
2018-10-07T04:59:03.162Z,11.12
2018-10-07T05:01:30.679Z,11.38
2018-10-07T05:03:58.259Z,10.50
2018-10-07T05:06:29.531Z,11.55
2018-10-07T05:08:57.158Z,10.75
2018-10-07T05:11:26.953Z,9.80
2018-10-07T05:13:55.551Z,11.12
2018-10-07T05:16:26.662Z,10.63
2018-10-07T05:18:54.218Z,12.18
2018-10-07T05:21:21.788Z,11.12
2018-10-07T05:23:49.278Z,11.55
2018-10-07T05:26:16.770Z,11.22
2018-10-07T05:28:44.306Z,10.30
2018-10-07T05:31:11.766Z,12.10
2018-10-07T05:33:39.323Z,11.50
2018-10-07T05:36:06.795Z,10.90
2018-10-07T05:38:34.341Z,10.25
2018-10-07T05:41:01.858Z,11.38
2018-10-07T05:43:29.520Z,12.07
2018-10-07T05:45:57.000Z,12.33
2018-10-07T05:48:24.470Z,11.55
2018-10-07T05:50:52.051Z,10.25
2018-10-07T05:53:19.558Z,11.03
2018-10-07T05:55:47.211Z,10.32
2018-10-07T05:58:14.767Z,10.63
2018-10-07T06:00:42.431Z,11.45
2018-10-07T06:03:15.008Z,12.10
2018-10-07T06:05:42.745Z,11.57
2018-10-07T06:08:11.826Z,10.60
2018-10-07T06:10:39.417Z,11.95
2018-10-07T06:13:06.906Z,10.45
2018-10-07T06:15:35.781Z,11.90
2018-10-07T06:18:03.279Z,12.03
2018-10-07T06:20:31.119Z,9.98
2018-10-07T06:22:58.874Z,11.70
2018-10-07T06:25:26.654Z,10.45
2018-10-07T06:27:54.734Z,10.70
2018-10-07T06:30:22.426Z,11.95
2018-10-07T06:32:50.061Z,11.68
2018-10-07T06:35:17.757Z,11.22
2018-10-07T06:37:45.274Z,12.07
2018-10-07T06:40:12.861Z,12.13
2018-10-07T06:42:40.533Z,12.15
2018-10-07T06:45:08.058Z,12.70
2018-10-07T06:47:35.697Z,11.28
2018-10-07T06:50:03.370Z,20.32
2018-10-07T06:52:30.994Z,12.35
2018-10-07T06:54:58.590Z,11.60
2018-10-07T06:57:26.187Z,13.50
2018-10-07T06:59:53.694Z,12.90
2018-10-07T07:02:21.362Z,11.45
2018-10-07T07:04:48.897Z,12.18
2018-10-07T07:07:16.465Z,12.60
2018-10-07T07:09:43.962Z,12.13
2018-10-07T07:12:11.537Z,11.97
2018-10-07T07:14:39.286Z,13.00
2018-10-07T07:17:06.770Z,12.93
2018-10-07T07:19:34.396Z,12.20
2018-10-07T07:22:01.977Z,13.50
2018-10-07T07:24:29.613Z,12.68
2018-10-07T07:26:57.155Z,11.90
2018-10-07T07:29:24.726Z,14.45
2018-10-07T07:31:52.314Z,14.33
2018-10-07T07:34:19.862Z,12.33
2018-10-07T07:36:47.351Z,13.03
2018-10-07T07:39:14.939Z,13.30
2018-10-07T07:41:42.455Z,12.80
2018-10-07T07:44:10.090Z,12.68
2018-10-07T07:46:37.581Z,10.30
2018-10-07T07:49:05.319Z,10.38
2018-10-07T07:51:32.833Z,11.05
2018-10-07T07:54:00.424Z,8.65
2018-10-07T07:56:27.945Z,9.78
2018-10-07T07:58:55.517Z,9.45
2018-10-07T08:01:23.049Z,10.20
2018-10-07T08:03:50.571Z,9.83
2018-10-07T08:06:18.140Z,9.48
2018-10-07T08:08:45.681Z,9.53
2018-10-07T08:11:13.259Z,9.13
2018-10-07T08:13:40.795Z,8.90
2018-10-07T08:16:08.517Z,7.78
2018-10-07T08:18:36.018Z,8.33
2018-10-07T08:21:03.636Z,9.05
2018-10-07T08:23:31.268Z,7.97
2018-10-07T08:25:58.828Z,7.47
2018-10-07T08:28:26.333Z,8.40
2018-10-07T08:30:53.959Z,8.45
2018-10-07T08:33:21.525Z,8.18
2018-10-07T08:35:49.162Z,7.40
2018-10-07T08:38:16.703Z,7.58
2018-10-07T08:40:44.296Z,7.33
2018-10-07T08:43:11.976Z,8.33
2018-10-07T08:45:39.599Z,7.70
2018-10-07T08:48:07.240Z,7.40
2018-10-07T08:50:34.752Z,7.28
2018-10-07T08:53:02.964Z,7.78
2018-10-07T08:55:30.461Z,7.17
2018-10-07T08:57:58.114Z,6.20
2018-10-07T09:00:25.719Z,7.22
2018-10-07T09:02:53.256Z,7.62
2018-10-07T09:05:20.931Z,8.03
2018-10-07T09:07:48.481Z,7.08
2018-10-07T09:10:16.075Z,7.28
2018-10-07T09:12:43.619Z,7.87
2018-10-07T09:15:11.251Z,6.30
2018-10-07T09:17:38.798Z,8.90
2018-10-07T09:20:06.588Z,7.00
2018-10-07T09:22:34.170Z,7.22
2018-10-07T09:25:02.283Z,8.18
2018-10-07T09:27:29.882Z,7.72
2018-10-07T09:29:57.577Z,6.95
2018-10-07T09:32:25.232Z,7.45
2018-10-07T09:34:52.882Z,8.75
2018-10-07T09:37:20.442Z,8.00
2018-10-07T09:39:48.109Z,7.20
2018-10-07T09:42:15.867Z,7.97
2018-10-07T09:44:43.577Z,8.58
2018-10-07T09:47:11.366Z,8.20
2018-10-07T09:49:39.073Z,8.98
2018-10-07T09:52:06.706Z,9.75
2018-10-07T09:54:34.311Z,7.58
2018-10-07T09:57:02.115Z,7.37
2018-10-07T09:59:29.643Z,7.60
2018-10-07T10:01:57.358Z,7.00
2018-10-07T10:04:24.996Z,7.47
2018-10-07T10:06:52.568Z,7.22
2018-10-07T10:09:20.109Z,7.92
2018-10-07T10:11:47.750Z,7.83
2018-10-07T10:14:15.422Z,8.15
2018-10-07T10:16:53.560Z,7.80
2018-10-07T10:19:27.665Z,6.62
2018-10-07T10:22:01.574Z,10.18
2018-10-07T10:24:43.182Z,11.88
2018-10-07T10:28:17.567Z,6.90
2018-10-07T10:30:55.465Z,7.20
2018-10-07T10:33:31.899Z,7.37
2018-10-07T10:37:10.478Z,7.40
2018-10-07T10:39:54.404Z,10.32
2018-10-07T10:43:31.687Z,7.72
2018-10-07T10:46:18.873Z,6.50
2018-10-07T10:48:50.892Z,6.97
2018-10-07T10:51:23.829Z,8.20
2018-10-07T10:54:00.303Z,10.78
2018-10-07T10:56:35.313Z,7.20
2018-10-07T10:59:10.434Z,5.78
2018-10-07T11:01:48.221Z,7.60
2018-10-07T11:04:23.524Z,6.30
2018-10-07T11:07:18.667Z,6.70
2018-10-07T11:10:01.657Z,7.30
2018-10-07T11:12:38.110Z,6.72
2018-10-07T11:16:13.578Z,10.77
2018-10-07T11:18:53.400Z,6.30
2018-10-07T11:22:14.906Z,8.70
2018-10-07T11:24:53.437Z,6.40
2018-10-07T11:28:28.809Z,7.20
2018-10-07T11:33:13.712Z,5.90
2018-10-07T11:36:20.881Z,6.07
2018-10-07T11:39:02.019Z,5.93
2018-10-07T11:41:39.944Z,6.10
2018-10-07T11:45:16.950Z,6.00
2018-10-07T11:47:49.220Z,5.90
2018-10-07T11:50:22.733Z,6.30
2018-10-07T11:52:54.478Z,6.03
2018-10-07T11:55:21.941Z,6.07
2018-10-07T11:57:49.459Z,5.77
2018-10-07T12:00:24.715Z,6.00
2018-10-07T12:02:52.372Z,8.33
2018-10-07T12:05:19.915Z,8.00
2018-10-07T12:07:47.563Z,7.17
2018-10-07T12:10:15.235Z,7.20
2018-10-07T12:12:42.769Z,6.50
2018-10-07T12:15:10.410Z,6.50
2018-10-07T12:20:37.362Z,5.73
2018-10-07T12:23:04.890Z,6.17
2018-10-07T12:25:32.618Z,6.27
2018-10-07T12:28:00.167Z,5.40
2018-10-07T12:30:27.843Z,5.40
2018-10-07T12:32:55.394Z,6.60
2018-10-07T12:35:22.957Z,5.80
2018-10-07T12:37:50.459Z,6.87
2018-10-07T12:40:18.079Z,6.47
2018-10-07T12:42:45.708Z,5.70
2018-10-07T12:45:13.334Z,8.63
2018-10-07T12:47:40.891Z,6.37
2018-10-07T12:50:08.415Z,6.40
2018-10-07T12:52:36.838Z,6.63
2018-10-07T12:55:04.459Z,8.27
2018-10-07T12:57:32.154Z,6.20
2018-10-07T12:59:59.675Z,6.80
2018-10-07T13:02:27.332Z,5.33
2018-10-07T13:04:54.883Z,5.77
2018-10-07T13:07:22.796Z,6.40
2018-10-07T13:09:50.397Z,5.70
2018-10-07T13:12:17.950Z,7.77
2018-10-07T13:14:45.577Z,8.93
2018-10-07T13:17:13.106Z,5.87
2018-10-07T13:19:40.739Z,6.37
2018-10-07T13:22:08.320Z,6.73
2018-10-07T13:24:35.886Z,6.17
2018-10-07T13:27:03.470Z,5.80
2018-10-07T13:29:31.088Z,6.63
2018-10-07T13:31:58.639Z,9.33
2018-10-07T13:34:26.310Z,6.77
2018-10-07T13:36:53.897Z,7.37
2018-10-07T13:39:21.537Z,7.30
2018-10-07T13:41:49.085Z,6.20
2018-10-07T13:44:16.844Z,7.03
2018-10-07T13:46:44.385Z,10.50
2018-10-07T13:49:11.937Z,6.97
2018-10-07T13:51:39.563Z,6.10
2018-10-07T13:54:07.069Z,7.27
2018-10-07T13:56:34.724Z,6.47
2018-10-07T13:59:02.760Z,7.33
2018-10-07T14:01:30.523Z,7.00
2018-10-07T14:03:58.139Z,6.43
2018-10-07T14:06:25.763Z,7.40
2018-10-07T14:08:53.314Z,7.17
2018-10-07T14:11:20.951Z,5.60
2018-10-07T14:13:48.458Z,6.30
2018-10-07T14:16:16.099Z,6.90
2018-10-07T14:18:43.627Z,8.93
2018-10-07T14:21:11.220Z,9.50
2018-10-07T14:23:38.716Z,6.13
2018-10-07T14:26:06.366Z,6.67
2018-10-07T14:28:33.896Z,11.77
2018-10-07T14:31:01.482Z,5.53
2018-10-07T14:33:29.020Z,6.53
2018-10-07T14:35:56.522Z,6.40
2018-10-07T14:38:24.134Z,6.00
2018-10-07T14:40:51.716Z,8.57
2018-10-07T14:43:19.387Z,6.93
2018-10-07T14:45:46.890Z,5.50
2018-10-07T14:48:14.486Z,6.43
2018-10-07T14:50:42.012Z,9.10
2018-10-07T14:53:09.566Z,7.03
2018-10-07T14:55:37.174Z,6.90
2018-10-07T14:58:04.873Z,6.30
2018-10-07T15:00:32.473Z,7.30
2018-10-07T15:03:00.011Z,5.67
2018-10-07T15:05:27.629Z,6.80
2018-10-07T15:07:55.136Z,6.10
2018-10-07T15:10:22.786Z,7.70
2018-10-07T15:12:50.311Z,8.60
2018-10-07T15:15:17.846Z,7.03
2018-10-07T15:17:45.437Z,5.60
2018-10-07T15:20:13.196Z,6.37
2018-10-07T15:22:40.843Z,6.00
2018-10-07T15:25:08.391Z,9.90
2018-10-07T15:27:36.057Z,7.73
2018-10-07T15:30:04.216Z,6.33
2018-10-07T15:32:31.858Z,6.80
2018-10-07T15:34:59.403Z,7.07
2018-10-07T15:37:27.016Z,7.67
2018-10-07T15:39:54.609Z,8.60
2018-10-07T15:42:22.298Z,6.77
2018-10-07T15:44:49.879Z,6.73
2018-10-07T15:47:17.579Z,7.40
2018-10-07T15:49:45.129Z,7.47
2018-10-07T15:52:12.817Z,7.05
2018-10-07T15:54:40.470Z,7.08
2018-10-07T15:57:08.063Z,7.42
2018-10-07T15:59:35.702Z,7.03
2018-10-07T16:02:03.438Z,6.45
2018-10-07T16:04:31.045Z,8.18
2018-10-07T16:06:58.674Z,9.05
2018-10-07T16:09:26.278Z,9.50
2018-10-07T16:11:54.007Z,7.72
2018-10-07T16:14:21.826Z,7.42
2018-10-07T16:16:49.594Z,7.12
2018-10-07T16:19:21.035Z,17.23
2018-10-07T16:21:48.782Z,7.90
2018-10-07T16:24:16.426Z,8.90
2018-10-07T16:26:45.243Z,9.53
2018-10-07T16:29:13.240Z,9.98
2018-10-07T16:31:42.873Z,10.30
2018-10-07T16:34:10.525Z,10.85
2018-10-07T16:36:38.080Z,11.43
2018-10-07T16:39:06.133Z,13.08
2018-10-07T16:41:33.815Z,10.70
2018-10-07T16:44:01.540Z,10.23
2018-10-07T16:46:29.171Z,10.35
2018-10-07T16:48:56.966Z,9.53
2018-10-07T16:51:24.527Z,11.48
2018-10-07T16:53:52.270Z,9.75
2018-10-07T16:56:19.931Z,9.25
2018-10-07T16:58:47.694Z,10.38
2018-10-07T17:01:16.330Z,10.43
2018-10-07T17:03:44.119Z,9.93
2018-10-07T17:06:11.746Z,10.65
2018-10-07T17:08:39.315Z,11.25
2018-10-07T17:11:06.947Z,10.40
2018-10-07T17:13:34.551Z,10.55
2018-10-07T17:16:02.207Z,10.88
2018-10-07T17:18:29.738Z,10.90
2018-10-07T17:20:57.437Z,11.00
2018-10-07T17:23:24.989Z,11.03
2018-10-07T17:25:52.599Z,14.83
2018-10-07T17:28:20.413Z,12.35
2018-10-07T17:30:47.998Z,11.90
2018-10-07T17:33:15.639Z,11.90
2018-10-07T17:35:43.242Z,12.40
2018-10-07T17:38:10.922Z,14.13
2018-10-07T17:40:38.600Z,15.75
2018-10-07T17:43:06.279Z,15.68
2018-10-07T17:45:33.846Z,15.93
2018-10-07T17:48:01.560Z,15.35
2018-10-07T17:50:29.130Z,17.35
2018-10-07T17:52:56.804Z,15.58
2018-10-07T17:55:24.346Z,16.50
2018-10-07T17:57:51.922Z,14.38
2018-10-07T18:00:19.694Z,14.25
2018-10-07T18:02:47.322Z,14.70
2018-10-07T18:05:14.917Z,16.27
2018-10-07T18:07:42.564Z,14.90
2018-10-07T18:10:10.513Z,17.45
2018-10-07T18:12:38.416Z,16.55
2018-10-07T18:15:06.229Z,16.15
2018-10-07T18:17:33.771Z,15.75
2018-10-07T18:20:01.534Z,15.30
2018-10-07T18:22:29.214Z,15.75
2018-10-07T18:25:06.171Z,17.87
2018-10-07T18:27:36.617Z,17.95
2018-10-07T18:30:04.348Z,18.82
2018-10-07T18:32:32.992Z,17.95
2018-10-07T18:35:01.171Z,19.05
2018-10-07T18:37:28.785Z,17.77
2018-10-07T18:39:56.464Z,19.05
2018-10-07T18:42:24.102Z,16.30
2018-10-07T18:44:51.682Z,19.12
2018-10-07T18:47:19.288Z,19.12
2018-10-07T18:49:46.820Z,18.73
2018-10-07T18:52:14.463Z,19.90
2018-10-07T18:54:42.168Z,20.05
2018-10-07T18:57:09.766Z,19.25
2018-10-07T18:59:37.348Z,17.67
2018-10-07T19:02:05.467Z,19.25
2018-10-07T19:04:33.181Z,20.15
2018-10-07T19:07:00.906Z,18.65
2018-10-07T19:09:29.093Z,18.12
2018-10-07T19:11:56.731Z,20.97
2018-10-07T19:14:24.553Z,19.45
2018-10-07T19:16:52.034Z,19.20
2018-10-07T19:19:19.719Z,17.65
2018-10-07T19:21:47.288Z,18.65
2018-10-07T19:24:15.025Z,20.00
2018-10-07T19:26:42.645Z,19.80
2018-10-07T19:29:10.304Z,19.30
2018-10-07T19:31:37.950Z,18.85
2018-10-07T19:34:05.690Z,19.10
2018-10-07T19:36:33.382Z,20.65
2018-10-07T19:39:01.060Z,19.25
2018-10-07T19:41:28.627Z,19.85
2018-10-07T19:43:56.258Z,19.65
2018-10-07T19:46:23.853Z,19.80
2018-10-07T19:48:51.398Z,18.90
2018-10-07T19:51:18.978Z,18.98
2018-10-07T19:53:46.593Z,19.17
2018-10-07T19:56:14.176Z,17.87
2018-10-07T19:58:41.834Z,18.80
2018-10-07T20:01:09.487Z,19.40
2018-10-07T20:03:37.030Z,18.85
2018-10-07T20:06:04.602Z,21.33
2018-10-07T20:08:32.176Z,17.75
2018-10-07T20:10:59.839Z,19.82
2018-10-07T20:13:27.689Z,18.37
2018-10-07T20:15:55.391Z,18.00
2018-10-07T20:18:23.088Z,18.02
2018-10-07T20:20:50.594Z,19.00
2018-10-07T20:23:18.255Z,17.95
2018-10-07T20:25:46.195Z,17.10
2018-10-07T20:28:13.884Z,17.42
2018-10-07T20:30:41.704Z,17.90
2018-10-07T20:33:09.634Z,18.55
2018-10-07T20:35:37.282Z,16.37
2018-10-07T20:38:04.931Z,17.27
2018-10-07T20:40:32.926Z,19.10
2018-10-07T20:43:01.077Z,17.35
2018-10-07T20:45:28.777Z,18.00
2018-10-07T20:47:56.319Z,17.40
2018-10-07T20:50:25.333Z,17.98
2018-10-07T20:52:51.468Z,18.62
2018-10-07T20:55:19.119Z,17.40
2018-10-07T20:57:46.674Z,18.50
2018-10-07T21:00:14.309Z,19.62
2018-10-07T21:02:41.906Z,17.90
2018-10-07T21:05:09.503Z,19.50
2018-10-07T21:07:37.033Z,18.05
2018-10-07T21:10:04.693Z,18.87
2018-10-07T21:12:32.210Z,18.05
2018-10-07T21:14:59.832Z,17.25
2018-10-07T21:17:27.454Z,19.07
2018-10-07T21:19:55.265Z,18.05
2018-10-07T21:22:22.829Z,19.87
2018-10-07T21:24:50.446Z,20.95
2018-10-07T21:27:18.090Z,19.62
2018-10-07T21:29:45.687Z,20.62
2018-10-07T21:32:13.216Z,19.20
2018-10-07T21:34:40.767Z,18.80
2018-10-07T21:37:08.374Z,16.77
2018-10-07T21:39:35.917Z,20.45
2018-10-07T21:42:03.626Z,20.05
2018-10-07T21:44:31.173Z,20.60
2018-10-07T21:46:58.759Z,18.05
2018-10-07T21:49:26.355Z,19.25
2018-10-07T21:51:53.857Z,18.92
2018-10-07T21:54:21.476Z,22.45
2018-10-07T21:56:48.995Z,18.82
2018-10-07T21:59:16.610Z,19.57
2018-10-07T22:01:44.122Z,18.85
2018-10-07T22:04:11.694Z,18.92
2018-10-07T22:06:39.361Z,19.12
2018-10-07T22:09:07.713Z,18.37
2018-10-07T22:11:35.308Z,19.15
2018-10-07T22:14:02.901Z,20.25
2018-10-07T22:16:30.457Z,18.87
2018-10-07T22:18:57.933Z,19.00
2018-10-07T22:21:25.540Z,17.77
2018-10-07T22:23:53.117Z,18.70
2018-10-07T22:26:20.754Z,18.73
2018-10-07T22:28:48.268Z,17.35
2018-10-07T22:31:15.805Z,17.35
2018-10-07T22:33:43.345Z,19.07
2018-10-07T22:36:10.941Z,20.92
2018-10-07T22:38:38.460Z,19.95
2018-10-07T22:41:06.080Z,20.62
2018-10-07T22:43:33.700Z,20.52
2018-10-07T22:46:01.440Z,20.30
2018-10-07T22:48:28.949Z,19.23
2018-10-07T22:50:56.549Z,19.80
2018-10-07T22:53:24.079Z,19.35
2018-10-07T22:55:51.600Z,24.23
2018-10-07T22:58:19.094Z,20.65
2018-10-07T23:00:46.686Z,19.85
2018-10-07T23:03:14.214Z,19.27
2018-10-07T23:05:41.743Z,20.97
2018-10-07T23:08:09.281Z,19.92
2018-10-07T23:10:36.774Z,22.35
2018-10-07T23:13:04.409Z,19.40
2018-10-07T23:15:31.897Z,21.87
2018-10-07T23:17:59.482Z,19.95
2018-10-07T23:20:27.075Z,19.77
2018-10-07T23:22:54.686Z,21.37
2018-10-07T23:25:22.182Z,20.32
2018-10-07T23:27:49.774Z,20.52
2018-10-07T23:30:17.269Z,21.40
2018-10-07T23:32:44.814Z,20.57
2018-10-07T23:35:12.265Z,19.40
2018-10-07T23:37:39.862Z,19.12
2018-10-07T23:40:07.831Z,20.05
2018-10-07T23:42:36.196Z,19.98
2018-10-07T23:45:03.934Z,20.12
2018-10-07T23:47:31.572Z,23.10
2018-10-07T23:49:59.071Z,21.52
2018-10-07T23:52:26.616Z,19.35
2018-10-07T23:54:54.103Z,21.10
2018-10-07T23:57:21.663Z,21.40
2018-10-07T23:59:49.330Z,27.50
